Station: Oenpelli Airport  

  Atmospheric Gas Attenuation - ITU Rec 676-11   ----------------- dB/100km -----------------
Date Time Temp RH % AH g/m3 Dew Point Wind Direction Speed kph Gust kph Barometer mB Rainfall Since 9am 24GHz 47GHz 76GHz 122GHz 134GHz 241GHz
05/09 22:40 24.6 80 18.01 20.9 7 9 1016.7 0 38.9 38.5 73.2 193.4 211.3 733.8
05/09 22:30 24.5 79 17.68 20.6 7 9 1016.6 0 38.2 37.9 71.7 189.6 206.6 717.3
05/09 22:20 24.6 78 17.56 20.5 7 9 1016.7 0 37.9 37.7 71.1 187.9 204.5 710.2
05/09 22:10 24.8 77 17.53 20.5 7 11 1016.7 0 37.8 37.5 70.8 187.0 203.5 706.7
05/09 22:00 24.9 76 17.4 20.4 7 9 1016.6 0 37.6 37.2 70.1 185.2 201.3 699.0
05/09 21:50 25.2 75 17.46 20.5 9 13 1016.5 0 37.7 37.2 70.1 185.2 201.4 699.3
05/09 21:40 25.3 74 17.32 20.3 9 13 1016.4 0 37.3 36.9 69.3 183.3 199.0 691.2
05/09 21:30 25.4 73 17.19 20.2 9 13 1016.3 0 37.1 36.6 68.6 181.4 196.8 683.6
05/09 21:20 25.5 72 17.05 20.1 9 13 1016.2 0 36.8 36.3 67.9 179.5 194.5 675.5
05/09 21:10 25.6 71 16.9 19.9 9 13 1016.2 0 36.4 36.0 67.2 177.5 192.1 667.0
05/09 21:00 25.8 70 16.85 19.9 9 13 1016.1 0 36.3 35.8 66.8 176.5 190.8 662.7
05/09 20:50 25.8 69 16.61 19.7 7 11 1016 0 35.8 35.4 65.7 173.6 187.4 650.6
05/09 20:40 26 67 16.31 19.4 7 9 1015.9 0 35.2 34.8 64.2 169.7 182.6 634.0
05/09 20:30 26 66 16.07 19.2 9 13 1015.6 0 34.6 34.4 63.2 166.9 179.1 622.0
05/09 20:20 26.1 64 15.67 18.8 9 13 1015.4 0 33.8 33.6 61.4 162.1 173.3 601.6
05/09 20:10 26.4 62 15.43 18.5 11 17 1015.3 0 33.3 33.1 60.1 158.7 169.3 587.6
05/09 20:00 26.9 57 14.59 17.7 13 20 1015 0 31.5 31.5 56.2 148.4 156.8 544.1
05/09 19:50 27 57 14.67 17.8 11 19 1014.9 0 31.6 31.6 56.5 149.1 157.6 547.1
05/09 19:40 27.5 54 14.29 17.4 11 17 1014.8 0 30.8 30.8 54.6 144.1 151.6 526.1
05/09 19:30 27.5 53 14.02 17.1 7 9 1014.6 0 30.2 30.4 53.5 141.2 148.0 513.7
05/09 19:20 27.9 52 14.06 17.1 9 13 1014.5 0 30.3 30.3 53.4 140.9 147.8 512.8
05/09 19:10 28.2 52 14.3 17.4 11 15 1014.4 0 30.8 30.6 54.1 142.8 150.3 521.7
05/09 19:00 28.2 53 14.57 17.7 9 13 1014.2 0 31.3 31.0 55.2 145.7 153.8 533.9
05/09 18:50 28.4 53 14.73 17.9 11 15 1014.1 0 31.6 31.2 55.7 147.0 155.5 539.9
05/09 18:40 28.8 53 15.06 18.3 13 20 1014.1 0 32.3 31.6 56.7 149.8 159.0 552.2
05/09 18:30 29.4 52 15.27 18.5 15 24 1013.8 0 32.7 31.7 57.1 150.9 160.5 557.5
05/09 18:20 29.8 51 15.3 18.6 20 26 1013.6 0 32.7 31.6 56.9 150.4 160.1 556.0
05/09 18:10 30.3 50 15.41 18.7 19 32 1013.6 0 32.9 31.6 57.0 150.6 160.5 557.5
05/09 18:00 30.5 55 17.14 20.4 11 20 1013.5 0 36.5 34.3 63.9 168.9 183.1 636.2
05/09 17:50 30.6 51 15.98 19.3 13 19 1013.3 0 34.1 32.4 59.1 156.1 167.3 581.2
05/09 17:40 31 50 16.01 19.4 13 20 1013 0 34.1 32.3 58.9 155.6 166.8 579.5
05/09 17:30 31.6 49 16.2 19.6 13 19 1012.8 0 34.5 32.3 59.2 156.4 167.9 583.7
05/09 17:20 32.2 48 16.38 19.8 11 19 1012.7 0 34.8 32.4 59.4 157.1 169.0 587.4
05/09 17:10 32.6 48 16.73 20.2 13 19 1012.6 0 35.5 32.8 60.5 160.0 172.6 600.2
05/09 17:00 32.3 48 16.47 19.9 17 28 1012.6 0 35.0 32.5 59.7 157.8 169.9 590.7
05/09 16:50 32.5 48 16.65 20.1 19 24 1012.5 0 35.3 32.7 60.3 159.3 171.8 597.3
05/09 16:40 32.7 47 16.47 19.9 24 33 1012.3 0 34.9 32.3 59.4 157.0 169.0 587.5
05/09 16:30 33.7 45 16.63 20.1 22 33 1012.2 0 35.2 32.2 59.3 156.7 168.9 587.3
05/09 16:20 35.6 39 15.91 19.5 22 32 1011.9 0 33.5 30.4 55.1 145.7 155.9 542.1
05/09 16:10 37.1 29 12.79 16.1 9 15 1011.9 0 27.0 25.5 43.1 113.8 117.0 406.5
05/09 16:00 36.8 30 13.02 16.4 6 13 1011.9 0 27.5 25.9 44.1 116.3 120.0 416.9
05/09 15:50 35.3 33 13.26 16.6 4 7 1012 0 28.1 26.6 45.7 120.7 125.0 434.2
05/09 15:40 35.6 32 13.06 16.4 4 7 1012.1 0 27.7 26.3 44.9 118.4 122.3 424.7
05/09 15:30 36.8 32 13.89 17.4 7 11 1012.2 0 29.3 27.1 47.1 124.3 129.9 451.3
05/09 15:20 36.5 33 14.11 17.6 6 13 1012.4 0 29.8 27.5 48.0 126.8 132.9 461.9
05/09 15:10 36.5 32 13.68 17.1 7 11 1012.5 0 28.9 26.9 46.5 122.8 128.0 444.7
05/09 15:00 35.4 33 13.33 16.7 4 11 1012.7 0 28.3 26.7 46.0 121.2 125.7 436.7
05/09 14:50 35.4 33 13.33 16.7 6 11 1012.9 0 28.3 26.7 46.0 121.3 125.8 436.8
05/09 14:40 36.9 32 13.96 17.5 6 11 1013 0 29.4 27.2 47.3 124.9 130.6 453.9
05/09 14:30 35.9 35 14.51 18 7 13 1013.1 0 30.6 28.3 49.9 131.6 138.7 481.9
05/09 14:20 36.1 34 14.24 17.7 7 13 1013.2 0 30.1 27.8 48.8 128.8 135.2 469.8
05/09 14:10 35.9 37 15.33 18.9 6 11 1013.4 0 32.3 29.5 52.8 139.6 148.4 516.1
05/09 14:00 36.1 36 15.08 18.7 4 9 1013.5 0 31.8 29.1 51.8 136.9 145.1 504.5
05/09 13:50 35.8 36 14.84 18.4 7 17 1013.7 0 31.3 28.8 51.1 135.1 142.8 496.4
05/09 13:40 35.4 38 15.35 18.9 2 9 1013.9 0 32.4 29.7 53.3 140.7 149.7 520.4
05/09 13:30 34.6 40 15.49 19 6 9 1014.1 0 32.7 30.2 54.3 143.6 152.9 531.7
05/09 13:20 33.2 42 15.12 18.6 6 9 1014.2 0 32.1 30.1 53.9 142.4 151.1 525.0
05/09 13:10 34 42 15.77 19.3 7 15 1014.4 0 33.4 30.9 55.8 147.5 157.6 548.0
05/09 13:00 34.4 41 15.72 19.2 9 17 1014.6 0 33.2 30.6 55.4 146.3 156.2 543.2
05/09 12:50 34.8 41 16.05 19.6 6 13 1014.8 0 33.9 31.0 56.4 148.9 159.6 554.8
05/09 12:40 35.3 41 16.47 20 9 13 1015 0 34.7 31.5 57.6 152.3 163.8 569.7
05/09 12:30 34 46 17.27 20.7 4 7 1015.2 0 36.5 33.3 61.7 163.2 176.9 615.1
05/09 12:20 32.9 48 17 20.4 6 15 1015.5 0 36.0 33.2 61.5 162.6 175.9 611.5
05/09 12:10 32.7 49 17.17 20.6 7 15 1015.7 0 36.4 33.6 62.4 164.9 178.6 621.0
05/09 12:00 32.5 49 16.99 20.4 9 17 1015.9 0 36.0 33.4 61.8 163.4 176.7 614.3
05/09 11:50 33.2 48 17.28 20.7 6 9 1016.1 0 36.5 33.6 62.4 165.1 178.9 622.2
05/09 11:40 32.8 49 17.27 20.7 6 9 1016.2 0 36.6 33.7 62.7 165.8 179.8 625.0
05/09 11:30 32.5 50 17.34 20.7 7 15 1016.3 0 36.7 34.0 63.3 167.2 181.4 630.7
05/09 11:20 32.5 51 17.69 21 6 11 1016.5 0 37.4 34.6 64.7 171.1 186.1 647.1
05/09 11:10 31.7 54 17.95 21.2 6 7 1016.8 0 38.1 35.3 66.5 175.8 191.6 666.3
05/09 11:00 30.8 58 18.37 21.6 7 9 1017 0 39.0 36.4 69.0 182.6 199.8 694.5
05/09 10:50 30.8 57 18.05 21.3 7 13 1017.1 0 38.4 35.9 67.7 179.0 195.3 679.0
05/09 10:40 31.1 59 18.99 22.1 4 11 1017.3 0 40.3 37.4 71.5 189.0 207.7 722.3
05/09 10:30 30.8 59 18.68 21.9 9 17 1017.3 0 39.7 37.0 70.4 186.2 204.2 709.8
05/09 10:20 32 56 18.91 22.1 7 13 1017.5 0 40.0 36.9 70.3 186.0 204.2 710.2
05/09 10:10 30.6 59 18.48 21.7 7 15 1017.6 0 39.3 36.7 69.7 184.4 201.9 702.0
05/09 10:00 31.1 58 18.67 21.9 7 13 1017.5 0 39.6 36.9 70.1 185.4 203.3 706.7
05/09 09:50 30.7 60 18.9 22 6 13 1017.5 0 40.1 37.4 71.5 189.0 207.6 721.7
05/09 09:40 30.1 63 19.21 22.3 6 11 1017.6 0 40.8 38.2 73.4 194.1 213.7 742.9
05/09 09:30 29.1 65 18.77 21.8 6 11 1017.6 0 40.0 37.9 72.4 191.4 210.1 730.3
05/09 09:20 29.6 64 19 22.1 6 9 1017.8 0 40.5 38.1 72.9 192.9 212.1 737.3
05/09 09:10 29.1 66 19.06 22.1 4 9 1017.8 0 40.6 38.4 73.7 194.9 214.4 745.1
05/09 09:00 28.8 68 19.32 22.3 6 9 1017.7 0 41.2 39.0 75.1 198.8 219.0 761.3
05/09 08:50 28.2 70 19.25 22.2 4 7 1017.7 0 41.1 39.2 75.4 199.5 219.8 763.7
05/09 08:40 28.3 71 19.63 22.5 4 7 1017.7 0 41.9 39.8 77.1 203.8 225.1 782.4
05/09 08:30 27.6 73 19.42 22.3 4 7 1017.7 0 41.5 39.8 76.8 203.1 224.1 778.6
05/09 08:20 27.3 75 19.63 22.5 4 7 1017.8 0 42.0 40.3 78.1 206.6 228.2 792.9
05/09 08:10 27.3 77 20.15 22.9 2 6 1017.7 0 43.1 41.3 80.5 213.0 236.1 820.5
05/09 08:00 26.3 80 19.8 22.6 2 4 1017.6 0 42.5 41.1 79.9 211.4 233.8 812.4
05/09 07:50 25.7 83 19.87 22.6 0 0 1017.5 0 42.7 41.5 80.9 214.0 236.8 822.7
05/09 07:40 25.2 85 19.79 22.5 0 0 1017.5 0 42.6 41.6 81.0 214.4 237.1 823.8
05/09 07:30 24.8 86 19.57 22.4 0 0 1017.3 0 42.2 41.4 80.4 212.6 234.9 816.0
05/09 07:20 24 91 19.8 22.4 0 0 1017.2 0 42.7 42.3 82.4 217.9 241.1 837.4
05/09 07:10 23.3 93 19.44 22.2 0 0 1017 0 42.1 41.9 81.3 215.2 237.6 825.0
05/09 07:00 22.8 94 19.1 21.8 0 0 1017 0 41.4 41.5 80.2 212.2 233.7 811.5
05/09 06:50 22.6 93 18.68 21.4 0 0 1016.9 0 40.5 40.8 78.4 207.2 227.6 790.3
05/09 06:40 22.8 93 18.9 21.6 0 0 1016.8 0 41.0 41.1 79.2 209.5 230.5 800.3
05/09 06:30 22.7 94 18.99 21.7 0 0 1016.7 0 41.2 41.3 79.8 211.0 232.2 806.3
05/09 06:20 22.6 94 18.88 21.6 0 0 1016.5 0 40.9 41.1 79.3 209.8 230.8 801.2
05/09 06:10 22.6 93 18.68 21.4 0 0 1016.4 0 40.5 40.7 78.3 207.2 227.5 790.0

Last Refresh: 05-Sep-2026 22:50:41

Bureau of Meteorology